createdAt,value
2022-12-17T00:00:35.880Z,33.33
2022-12-17T00:03:21.500Z,30.73
2022-12-17T00:06:06.821Z,31.40
2022-12-17T00:08:52.325Z,36.22
2022-12-17T00:11:37.815Z,33.05
2022-12-17T00:14:23.239Z,33.47
2022-12-17T00:17:11.342Z,31.60
2022-12-17T00:19:56.610Z,32.28
2022-12-17T00:22:42.098Z,32.00
2022-12-17T00:25:27.810Z,31.05
2022-12-17T00:28:13.275Z,33.40
2022-12-17T00:30:58.781Z,31.80
2022-12-17T00:33:44.286Z,30.75
2022-12-17T00:36:29.747Z,32.22
2022-12-17T00:39:15.239Z,29.83
2022-12-17T00:42:00.717Z,31.30
2022-12-17T00:44:46.288Z,29.05
2022-12-17T00:47:31.714Z,29.73
2022-12-17T00:50:17.168Z,32.75
2022-12-17T00:53:02.717Z,31.90
2022-12-17T00:55:48.157Z,33.17
2022-12-17T00:58:33.658Z,27.17
2022-12-17T01:01:20.075Z,32.38
2022-12-17T01:04:05.233Z,29.90
2022-12-17T01:06:50.721Z,29.77
2022-12-17T01:09:35.994Z,34.00
2022-12-17T01:12:21.449Z,32.55
2022-12-17T01:15:06.953Z,28.60
2022-12-17T01:17:52.427Z,30.83
2022-12-17T01:20:38.024Z,32.20
2022-12-17T01:23:27.015Z,28.42
2022-12-17T01:26:16.153Z,27.13
2022-12-17T01:29:01.707Z,29.35
2022-12-17T01:31:47.019Z,28.60
2022-12-17T01:34:32.241Z,30.30
2022-12-17T01:37:17.808Z,26.95
2022-12-17T01:40:03.162Z,28.00
2022-12-17T01:42:56.949Z,27.58
2022-12-17T01:45:42.506Z,29.73
2022-12-17T01:48:35.801Z,30.05
2022-12-17T01:51:22.170Z,28.98
2022-12-17T01:54:10.102Z,32.42
2022-12-17T01:56:58.866Z,28.60
2022-12-17T01:59:54.974Z,26.55
2022-12-17T02:02:40.440Z,29.55
2022-12-17T02:05:26.338Z,28.38
2022-12-17T02:08:34.679Z,31.65
2022-12-17T02:11:35.423Z,29.15
2022-12-17T02:14:31.280Z,28.35
2022-12-17T02:17:22.340Z,26.92
2022-12-17T02:20:37.613Z,29.30
2022-12-17T02:23:38.099Z,28.73
2022-12-17T02:26:35.083Z,31.17
2022-12-17T02:29:23.160Z,28.42
2022-12-17T02:32:10.102Z,31.50
2022-12-17T02:37:23.599Z,30.27
2022-12-17T02:40:09.138Z,29.02
2022-12-17T02:43:00.452Z,30.90
2022-12-17T02:45:46.055Z,29.33
2022-12-17T02:48:32.041Z,31.73
2022-12-17T02:51:17.603Z,27.83
2022-12-17T02:54:04.127Z,28.77
2022-12-17T02:56:49.552Z,28.75
2022-12-17T02:59:35.026Z,26.58
2022-12-17T03:02:20.481Z,29.10
2022-12-17T03:05:27.691Z,27.73
2022-12-17T03:08:11.118Z,31.30
2022-12-17T03:10:56.506Z,27.35
2022-12-17T03:13:44.013Z,30.33
2022-12-17T03:16:37.201Z,30.30
2022-12-17T03:19:23.300Z,28.58
2022-12-17T03:22:08.794Z,31.90
2022-12-17T03:24:54.251Z,32.53
2022-12-17T03:27:39.646Z,25.60
2022-12-17T03:30:25.641Z,31.77
2022-12-17T03:33:11.075Z,28.88
2022-12-17T03:35:56.537Z,31.13
2022-12-17T03:38:42.111Z,32.33
2022-12-17T03:41:27.570Z,31.45
2022-12-17T03:44:13.098Z,32.55
2022-12-17T03:46:58.635Z,31.58
2022-12-17T03:49:43.952Z,28.83
2022-12-17T03:52:29.526Z,31.13
2022-12-17T03:55:15.018Z,32.90
2022-12-17T03:58:00.387Z,33.65
2022-12-17T04:00:45.887Z,33.95
2022-12-17T04:03:31.235Z,33.78
2022-12-17T04:06:16.424Z,28.33
2022-12-17T04:09:01.735Z,32.25
2022-12-17T04:11:47.265Z,30.75
2022-12-17T04:14:32.726Z,31.80
2022-12-17T04:17:18.099Z,30.30
2022-12-17T04:20:03.683Z,33.28
2022-12-17T04:22:48.994Z,29.75
2022-12-17T04:25:34.530Z,29.38
2022-12-17T04:28:39.669Z,35.58
2022-12-17T04:31:25.427Z,31.48
2022-12-17T04:34:11.142Z,40.53
2022-12-17T04:36:56.578Z,35.72
2022-12-17T04:39:42.055Z,37.47
2022-12-17T04:42:27.491Z,34.03
2022-12-17T04:45:12.952Z,37.95
2022-12-17T04:48:12.016Z,40.38
2022-12-17T04:50:57.404Z,40.00
2022-12-17T04:53:42.856Z,37.83
2022-12-17T04:56:28.302Z,38.90
2022-12-17T04:59:13.674Z,39.47
2022-12-17T05:01:59.142Z,37.22
2022-12-17T05:04:44.555Z,35.35
2022-12-17T05:07:30.143Z,36.40
2022-12-17T05:10:15.605Z,37.40
2022-12-17T05:13:00.982Z,40.22
2022-12-17T05:15:52.771Z,33.97
2022-12-17T05:18:38.356Z,35.75
2022-12-17T05:21:23.703Z,33.83
2022-12-17T05:24:09.976Z,36.17
2022-12-17T05:26:55.535Z,39.08
2022-12-17T05:29:42.792Z,39.17
2022-12-17T05:32:28.366Z,34.97
2022-12-17T05:35:13.997Z,38.35
2022-12-17T05:37:59.347Z,32.10
2022-12-17T05:40:44.922Z,31.95
2022-12-17T05:43:31.361Z,31.52
2022-12-17T05:46:18.042Z,33.85
2022-12-17T05:49:03.529Z,35.67
2022-12-17T05:51:48.933Z,35.47
2022-12-17T05:54:34.431Z,29.42
2022-12-17T05:57:19.827Z,33.78
2022-12-17T06:00:25.150Z,35.55
2022-12-17T06:03:21.208Z,35.17
2022-12-17T06:06:06.819Z,33.75
2022-12-17T06:08:52.378Z,33.60
2022-12-17T06:11:37.730Z,33.25
2022-12-17T06:14:23.219Z,36.67
2022-12-17T06:17:08.554Z,31.95
2022-12-17T06:19:54.010Z,36.15
2022-12-17T06:22:39.478Z,33.20
2022-12-17T06:25:24.913Z,33.75
2022-12-17T06:28:19.911Z,32.55
2022-12-17T06:31:13.017Z,33.97
2022-12-17T06:33:58.965Z,33.55
2022-12-17T06:36:45.180Z,39.47
2022-12-17T06:39:30.552Z,35.67
2022-12-17T06:42:16.071Z,36.50
2022-12-17T06:45:01.538Z,39.72
2022-12-17T06:47:47.088Z,37.58
2022-12-17T06:50:32.634Z,37.33
2022-12-17T06:53:19.489Z,34.53
2022-12-17T06:56:04.915Z,36.17
2022-12-17T06:59:00.990Z,38.20
2022-12-17T07:01:47.295Z,35.22
2022-12-17T07:04:32.539Z,36.95
2022-12-17T07:07:18.122Z,35.70
2022-12-17T07:10:05.841Z,36.13
2022-12-17T07:15:38.922Z,38.03
2022-12-17T07:18:24.403Z,41.30
2022-12-17T07:21:12.278Z,35.08
2022-12-17T07:24:00.515Z,39.42
2022-12-17T07:26:46.007Z,39.85
2022-12-17T07:29:31.385Z,37.65
2022-12-17T07:32:16.943Z,40.22
2022-12-17T07:35:02.434Z,35.25
2022-12-17T07:37:47.739Z,35.25
2022-12-17T07:40:33.219Z,40.67
2022-12-17T07:43:18.652Z,42.38
2022-12-17T07:46:04.326Z,35.95
2022-12-17T07:48:49.437Z,44.20
2022-12-17T07:51:34.805Z,43.25
2022-12-17T07:54:20.335Z,41.17
2022-12-17T07:57:05.799Z,41.70
2022-12-17T07:59:51.355Z,44.03
2022-12-17T08:02:36.972Z,43.22
2022-12-17T08:05:22.333Z,44.28
2022-12-17T08:08:07.731Z,46.83
2022-12-17T08:10:53.241Z,45.15
2022-12-17T08:13:39.674Z,41.28
2022-12-17T08:16:25.589Z,46.22
2022-12-17T08:19:11.079Z,44.33
2022-12-17T08:21:56.688Z,43.25
2022-12-17T08:24:42.153Z,44.92
2022-12-17T08:27:27.697Z,47.58
2022-12-17T08:30:13.117Z,47.08
2022-12-17T08:32:58.556Z,43.83
2022-12-17T08:35:43.985Z,48.40
2022-12-17T08:38:29.502Z,42.85
2022-12-17T08:41:14.932Z,41.80
2022-12-17T08:44:00.257Z,44.90
2022-12-17T08:46:45.731Z,40.75
2022-12-17T08:49:30.995Z,38.83
2022-12-17T08:52:16.477Z,33.03
2022-12-17T08:55:01.834Z,41.95
2022-12-17T08:57:47.376Z,32.30
2022-12-17T09:00:32.884Z,29.63
2022-12-17T09:03:20.080Z,27.08
2022-12-17T09:06:05.585Z,33.13
2022-12-17T09:08:51.107Z,32.40
2022-12-17T09:11:36.522Z,34.42
2022-12-17T09:14:21.982Z,28.13
2022-12-17T09:17:07.510Z,26.40
2022-12-17T09:19:52.934Z,27.65
2022-12-17T09:22:38.447Z,27.75
2022-12-17T09:25:23.723Z,28.70
2022-12-17T09:28:09.217Z,28.88
2022-12-17T09:30:54.747Z,31.52
2022-12-17T09:33:40.523Z,27.95
2022-12-17T09:36:26.791Z,28.50
2022-12-17T09:39:12.224Z,29.95
2022-12-17T09:42:35.060Z,29.08
2022-12-17T09:45:39.367Z,31.30
2022-12-17T09:48:32.252Z,26.02
2022-12-17T09:51:18.531Z,32.85
2022-12-17T09:54:09.562Z,30.17
2022-12-17T09:56:56.511Z,29.95
2022-12-17T09:59:47.419Z,29.05
2022-12-17T10:05:24.705Z,26.45
2022-12-17T10:08:12.086Z,24.88
2022-12-17T10:11:03.319Z,28.63
2022-12-17T10:13:48.649Z,28.02
2022-12-17T10:16:55.984Z,28.20
2022-12-17T10:19:55.259Z,25.13
2022-12-17T10:22:41.085Z,28.53
2022-12-17T10:25:37.722Z,27.38
2022-12-17T10:28:43.951Z,29.63
2022-12-17T10:31:34.321Z,29.90
2022-12-17T10:34:19.769Z,26.45
2022-12-17T10:37:08.080Z,27.15
2022-12-17T10:39:53.692Z,25.15
2022-12-17T10:42:47.230Z,34.70
2022-12-17T10:45:53.693Z,24.00
2022-12-17T10:48:47.658Z,26.25
2022-12-17T10:51:43.821Z,25.73
2022-12-17T10:54:49.052Z,26.30
2022-12-17T10:57:54.943Z,27.50
2022-12-17T11:00:57.581Z,28.25
2022-12-17T11:04:10.693Z,27.58
2022-12-17T11:07:03.275Z,29.20
2022-12-17T11:09:48.744Z,28.88
2022-12-17T11:12:36.439Z,27.83
2022-12-17T11:15:47.572Z,31.30
2022-12-17T11:18:48.226Z,28.23
2022-12-17T11:21:41.996Z,31.02
2022-12-17T11:24:35.258Z,29.20
2022-12-17T11:27:24.140Z,25.27
2022-12-17T11:30:09.593Z,26.02
2022-12-17T11:33:16.760Z,25.65
2022-12-17T11:36:36.820Z,25.58
2022-12-17T11:40:02.923Z,34.53
2022-12-17T11:42:55.451Z,30.67
2022-12-17T11:46:14.980Z,26.65
2022-12-17T11:49:11.198Z,24.05
2022-12-17T11:52:15.943Z,29.48
2022-12-17T11:55:16.348Z,29.58
2022-12-17T11:58:23.804Z,26.95
2022-12-17T12:01:33.909Z,26.05
2022-12-17T12:04:36.597Z,27.10
2022-12-17T12:07:41.032Z,30.60
2022-12-17T12:10:35.836Z,29.33
2022-12-17T12:13:36.136Z,29.73
2022-12-17T12:16:44.632Z,29.20
2022-12-17T12:19:39.967Z,32.85
2022-12-17T12:23:01.608Z,34.05
2022-12-17T12:26:01.892Z,31.83
2022-12-17T12:29:02.535Z,39.15
2022-12-17T12:31:54.999Z,36.10
2022-12-17T12:34:50.363Z,32.28
2022-12-17T12:37:38.342Z,35.72
2022-12-17T12:40:42.913Z,34.78
2022-12-17T12:43:38.901Z,34.83
2022-12-17T12:46:30.350Z,37.95
2022-12-17T12:49:23.450Z,34.22
2022-12-17T12:52:10.950Z,32.58
2022-12-17T12:55:25.425Z,34.40
2022-12-17T12:58:22.057Z,32.70
2022-12-17T13:01:07.672Z,35.35
2022-12-17T13:03:58.086Z,36.60
2022-12-17T13:06:46.310Z,35.88
2022-12-17T13:09:17.036Z,36.47
2022-12-17T13:12:16.796Z,34.63
2022-12-17T13:15:22.077Z,34.38
2022-12-17T13:18:13.364Z,39.92
2022-12-17T13:20:40.070Z,36.90
2022-12-17T13:23:17.496Z,39.45
2022-12-17T13:25:44.531Z,39.70
2022-12-17T13:28:29.126Z,39.05
2022-12-17T13:31:13.710Z,36.42
2022-12-17T13:33:50.966Z,39.15
2022-12-17T13:36:29.518Z,34.92
2022-12-17T13:39:34.843Z,37.35
2022-12-17T13:42:02.441Z,39.38
2022-12-17T13:44:44.063Z,41.13
2022-12-17T13:47:30.597Z,43.63
2022-12-17T13:50:32.103Z,41.90
2022-12-17T13:52:46.262Z,40.03
2022-12-17T13:55:25.417Z,41.10
2022-12-17T13:57:53.539Z,41.35
2022-12-17T14:00:28.108Z,43.42
2022-12-17T14:02:55.138Z,44.95
2022-12-17T14:05:33.494Z,44.22
2022-12-17T14:08:05.377Z,47.90
2022-12-17T14:10:32.931Z,49.35
2022-12-17T14:13:07.560Z,51.40
2022-12-17T14:15:34.645Z,46.88
2022-12-17T14:18:02.478Z,49.05
2022-12-17T14:20:32.143Z,51.20
2022-12-17T14:23:06.631Z,53.97
2022-12-17T14:25:42.565Z,58.15
2022-12-17T14:28:23.089Z,58.63
2022-12-17T14:31:24.789Z,53.35
2022-12-17T14:33:38.256Z,55.55
2022-12-17T14:36:26.498Z,56.97
2022-12-17T14:39:01.401Z,55.22
2022-12-17T14:41:47.470Z,56.63
2022-12-17T14:44:22.615Z,55.67
2022-12-17T14:46:54.886Z,54.10
2022-12-17T14:49:22.397Z,56.00
2022-12-17T14:51:50.090Z,51.20
2022-12-17T14:54:26.061Z,55.55
2022-12-17T14:56:54.723Z,52.70
2022-12-17T14:59:35.710Z,52.65
2022-12-17T15:02:04.545Z,58.67
2022-12-17T15:04:32.653Z,59.25
2022-12-17T15:06:59.832Z,56.88
2022-12-17T15:09:26.555Z,60.55
2022-12-17T15:11:53.219Z,58.10
2022-12-17T15:14:20.031Z,58.35
2022-12-17T15:16:46.723Z,58.15
2022-12-17T15:19:13.402Z,58.53
2022-12-17T15:21:40.426Z,56.70
2022-12-17T15:24:10.817Z,58.40
2022-12-17T15:26:37.532Z,57.03
2022-12-17T15:29:04.367Z,56.25
2022-12-17T15:31:35.450Z,58.40
2022-12-17T15:34:02.615Z,60.08
2022-12-17T15:36:31.816Z,54.88
2022-12-17T15:38:59.202Z,58.50
2022-12-17T15:41:44.419Z,58.78
2022-12-17T15:44:11.135Z,61.85
2022-12-17T15:46:37.904Z,60.53
2022-12-17T15:49:04.658Z,65.25
2022-12-17T15:51:31.419Z,65.20
2022-12-17T15:53:58.190Z,63.40
2022-12-17T15:56:27.510Z,53.75
2022-12-17T15:58:57.795Z,65.72
2022-12-17T16:01:25.046Z,58.22
2022-12-17T16:03:52.085Z,64.63
2022-12-17T16:06:19.070Z,62.50
2022-12-17T16:08:45.862Z,72.65
2022-12-17T16:11:14.223Z,68.70
2022-12-17T16:13:41.007Z,67.40
2022-12-17T16:16:08.807Z,71.80
2022-12-17T16:18:36.674Z,68.70
2022-12-17T16:21:05.737Z,63.88
2022-12-17T16:23:32.757Z,70.40
2022-12-17T16:26:01.711Z,68.28
2022-12-17T16:28:30.203Z,68.70
2022-12-17T16:31:06.556Z,69.95
2022-12-17T16:33:35.983Z,71.05
2022-12-17T16:36:04.045Z,69.28
2022-12-17T16:38:31.183Z,66.80
2022-12-17T16:40:59.832Z,69.55
2022-12-17T16:43:26.797Z,80.57
2022-12-17T16:45:53.961Z,70.57
2022-12-17T16:48:21.973Z,60.53
2022-12-17T16:50:49.947Z,66.28
2022-12-17T16:53:17.946Z,78.90
2022-12-17T16:55:46.707Z,69.20
2022-12-17T16:58:15.339Z,62.72
2022-12-17T17:00:42.661Z,61.30
2022-12-17T17:03:10.091Z,64.75
2022-12-17T17:05:38.713Z,69.95
2022-12-17T17:08:05.967Z,59.45
2022-12-17T17:10:36.197Z,56.80
2022-12-17T17:13:03.624Z,54.47
2022-12-17T17:15:30.420Z,48.25
2022-12-17T17:18:02.560Z,51.83
2022-12-17T17:20:32.413Z,48.53
2022-12-17T17:22:59.915Z,46.40
2022-12-17T17:25:43.902Z,45.97
2022-12-17T17:28:13.669Z,46.25
2022-12-17T17:30:40.384Z,44.75
2022-12-17T17:33:07.084Z,47.55
2022-12-17T17:35:33.822Z,49.22
2022-12-17T17:38:00.966Z,48.58
2022-12-17T17:40:27.662Z,48.75
2022-12-17T17:42:54.333Z,48.33
2022-12-17T17:45:21.070Z,49.28
2022-12-17T17:47:47.792Z,54.13
2022-12-17T17:50:14.525Z,51.10
2022-12-17T17:52:41.207Z,50.50
2022-12-17T17:55:08.233Z,49.67
2022-12-17T17:57:34.917Z,53.33
2022-12-17T18:00:02.672Z,52.65
2022-12-17T18:02:29.468Z,52.65
2022-12-17T18:04:56.368Z,52.08
2022-12-17T18:07:25.521Z,51.22
2022-12-17T18:09:52.630Z,64.93
2022-12-17T18:12:37.901Z,61.33
2022-12-17T18:15:20.321Z,54.13
2022-12-17T18:17:51.025Z,51.78
2022-12-17T18:20:18.281Z,55.45
2022-12-17T18:22:46.322Z,56.47
2022-12-17T18:25:13.905Z,56.75
2022-12-17T18:27:40.646Z,53.20
2022-12-17T18:30:07.849Z,57.75
2022-12-17T18:32:34.543Z,55.15
2022-12-17T18:35:01.366Z,59.50
2022-12-17T18:37:28.130Z,59.03
2022-12-17T18:39:54.837Z,62.30
2022-12-17T18:42:40.039Z,60.20
2022-12-17T18:45:07.358Z,56.88
2022-12-17T18:47:34.073Z,57.58
2022-12-17T18:50:00.908Z,54.67
2022-12-17T18:52:27.724Z,58.05
2022-12-17T18:54:54.544Z,62.83
2022-12-17T18:57:21.234Z,60.28
2022-12-17T18:59:48.795Z,58.92
2022-12-17T19:02:16.018Z,57.95
2022-12-17T19:04:43.139Z,60.28
2022-12-17T19:07:10.029Z,57.15
2022-12-17T19:09:39.358Z,64.00
2022-12-17T19:12:08.091Z,60.15
2022-12-17T19:14:35.568Z,54.10
2022-12-17T19:17:02.683Z,58.63
2022-12-17T19:19:29.414Z,58.90
2022-12-17T19:21:56.466Z,55.60
2022-12-17T19:24:23.819Z,59.78
2022-12-17T19:26:51.515Z,51.33
2022-12-17T19:29:19.921Z,49.47
2022-12-17T19:31:47.243Z,51.13
2022-12-17T19:34:15.929Z,54.95
2022-12-17T19:36:43.277Z,50.63
2022-12-17T19:39:15.981Z,47.70
2022-12-17T19:41:42.834Z,50.30
2022-12-17T19:44:13.626Z,51.78
2022-12-17T19:46:41.234Z,55.65
2022-12-17T19:49:08.509Z,48.90
2022-12-17T19:51:35.271Z,52.53
2022-12-17T19:54:08.009Z,51.13
2022-12-17T19:56:35.731Z,49.95
2022-12-17T19:59:07.108Z,54.65
2022-12-17T20:01:37.032Z,56.20
2022-12-17T20:04:04.954Z,56.65
2022-12-17T20:06:34.372Z,52.38
2022-12-17T20:09:04.473Z,55.55
2022-12-17T20:11:34.831Z,52.78
2022-12-17T20:14:17.431Z,54.10
2022-12-17T20:16:47.416Z,52.53
2022-12-17T20:19:20.191Z,54.30
2022-12-17T20:21:47.821Z,50.90
2022-12-17T20:24:15.631Z,53.22
2022-12-17T20:26:42.562Z,50.40
2022-12-17T20:29:09.690Z,51.25
2022-12-17T20:31:37.136Z,53.30
2022-12-17T20:34:09.287Z,54.95
2022-12-17T20:36:36.189Z,53.58
2022-12-17T20:39:03.484Z,52.55
2022-12-17T20:41:31.611Z,52.67
2022-12-17T20:44:01.878Z,50.75
2022-12-17T20:46:28.680Z,48.85
2022-12-17T20:48:55.471Z,46.17
2022-12-17T20:51:24.934Z,50.20
2022-12-17T20:53:52.859Z,47.38
2022-12-17T20:56:26.480Z,50.05
2022-12-17T20:59:02.491Z,52.63
2022-12-17T21:01:31.532Z,48.95
2022-12-17T21:03:59.207Z,51.33
2022-12-17T21:06:35.243Z,51.80
2022-12-17T21:09:02.226Z,46.38
2022-12-17T21:11:30.198Z,42.90
2022-12-17T21:13:57.178Z,43.20
2022-12-17T21:16:29.643Z,38.05
2022-12-17T21:18:58.571Z,45.17
2022-12-17T21:21:28.412Z,45.70
2022-12-17T21:23:56.043Z,48.22
2022-12-17T21:26:25.878Z,45.47
2022-12-17T21:28:54.571Z,48.72
2022-12-17T21:31:27.140Z,41.80
2022-12-17T21:33:58.159Z,42.08
2022-12-17T21:36:27.426Z,40.00
2022-12-17T21:38:55.254Z,37.08
2022-12-17T21:41:25.284Z,34.65
2022-12-17T21:46:19.412Z,36.75
2022-12-17T21:48:46.655Z,37.65
2022-12-17T21:51:14.045Z,37.47
2022-12-17T21:53:43.437Z,41.88
2022-12-17T21:56:16.251Z,47.10
2022-12-17T21:58:45.275Z,45.05
2022-12-17T22:01:25.015Z,39.60
2022-12-17T22:06:24.666Z,40.25
2022-12-17T22:08:59.301Z,40.35
2022-12-17T22:11:28.983Z,42.47
2022-12-17T22:14:07.356Z,39.83
2022-12-17T22:16:39.366Z,38.70
2022-12-17T22:19:07.437Z,39.92
2022-12-17T22:21:40.061Z,37.85
2022-12-17T22:24:07.447Z,37.90
2022-12-17T22:26:34.615Z,45.35
2022-12-17T22:29:01.513Z,44.10
2022-12-17T22:31:46.675Z,40.92
2022-12-17T22:35:21.755Z,41.72
2022-12-17T22:40:51.850Z,42.85
2022-12-17T22:44:34.481Z,44.45
2022-12-17T22:44:43.450Z,38.08
2022-12-17T22:45:41.146Z,39.15
2022-12-17T22:48:09.663Z,42.40
2022-12-17T22:51:05.406Z,41.70
2022-12-17T22:53:24.577Z,38.15
2022-12-17T22:55:53.292Z,41.75
2022-12-17T22:58:21.086Z,39.38
2022-12-17T23:00:47.776Z,39.22
2022-12-17T23:03:14.540Z,35.65
2022-12-17T23:05:42.025Z,39.10
2022-12-17T23:08:08.749Z,40.20
2022-12-17T23:10:35.570Z,40.22
2022-12-17T23:13:02.293Z,43.47
2022-12-17T23:15:34.004Z,46.78
2022-12-17T23:18:03.255Z,43.03
2022-12-17T23:20:32.618Z,41.67
2022-12-17T23:23:00.178Z,46.83
2022-12-17T23:25:29.081Z,47.05
2022-12-17T23:27:55.891Z,51.47
2022-12-17T23:30:22.723Z,50.10
2022-12-17T23:32:49.519Z,46.83
2022-12-17T23:35:16.249Z,47.60
2022-12-17T23:37:42.973Z,52.35
2022-12-17T23:40:11.405Z,50.25
2022-12-17T23:42:38.717Z,50.42
2022-12-17T23:45:06.718Z,51.60
2022-12-17T23:47:33.662Z,49.40
2022-12-17T23:50:00.416Z,52.67
2022-12-17T23:52:27.155Z,50.50
2022-12-17T23:54:54.059Z,49.90
2022-12-17T23:57:20.778Z,52.25
2022-12-17T23:59:47.464Z,52.67
